createdAt,value
2016-12-17T00:00:26.055Z,0
2016-12-17T00:01:35.038Z,0
2016-12-17T00:02:43.741Z,0
2016-12-17T00:03:52.442Z,0
2016-12-17T00:05:02.083Z,0
2016-12-17T00:06:11.177Z,0
2016-12-17T00:07:19.870Z,0
2016-12-17T00:08:29.222Z,0
2016-12-17T00:09:38.213Z,0
2016-12-17T00:10:47.190Z,0
2016-12-17T00:11:56.179Z,0
2016-12-17T00:13:05.466Z,0
2016-12-17T00:14:15.082Z,0
2016-12-17T00:15:24.396Z,0
2016-12-17T00:16:33.417Z,0
2016-12-17T00:17:43.024Z,0
2016-12-17T00:18:52.338Z,0
2016-12-17T00:20:01.325Z,0
2016-12-17T00:21:10.649Z,0
2016-12-17T00:22:19.639Z,0
2016-12-17T00:23:29.275Z,0
2016-12-17T00:24:38.256Z,0
2016-12-17T00:25:47.583Z,0
2016-12-17T00:26:56.878Z,0
2016-12-17T00:28:05.592Z,0
2016-12-17T00:29:14.575Z,0
2016-12-17T00:30:23.256Z,0
2016-12-17T00:31:32.858Z,0
2016-12-17T00:32:41.559Z,0
2016-12-17T00:33:50.853Z,0
2016-12-17T00:34:59.639Z,0
2016-12-17T00:36:08.932Z,0
2016-12-17T00:37:17.916Z,0
2016-12-17T00:38:26.590Z,0
2016-12-17T00:39:35.882Z,0
2016-12-17T00:40:44.714Z,0
2016-12-17T00:41:54.007Z,0
2016-12-17T00:43:02.705Z,0
2016-12-17T00:44:11.702Z,0
2016-12-17T00:45:20.373Z,0
2016-12-17T00:46:29.655Z,0
2016-12-17T00:47:38.339Z,0
2016-12-17T00:48:47.654Z,0
2016-12-17T00:49:56.333Z,0
2016-12-17T00:51:05.319Z,0
2016-12-17T00:52:14.000Z,0
2016-12-17T00:53:22.690Z,0
2016-12-17T00:54:31.976Z,0
2016-12-17T00:55:41.278Z,0
2016-12-17T00:56:50.570Z,0
2016-12-17T00:57:59.553Z,0
2016-12-17T00:59:08.904Z,0
2016-12-17T01:00:17.899Z,0
2016-12-17T01:01:26.890Z,0
2016-12-17T01:02:36.212Z,0
2016-12-17T01:03:45.205Z,0
2016-12-17T01:04:53.871Z,0
2016-12-17T01:06:02.552Z,0
2016-12-17T01:07:11.221Z,0
2016-12-17T01:08:20.510Z,0
2016-12-17T01:09:29.665Z,0
2016-12-17T01:10:38.657Z,0
2016-12-17T01:11:47.353Z,0
2016-12-17T01:12:56.638Z,0
2016-12-17T01:14:05.927Z,0
2016-12-17T01:15:15.574Z,0
2016-12-17T01:16:25.190Z,0
2016-12-17T01:17:33.877Z,0
2016-12-17T01:18:42.566Z,0
2016-12-17T01:19:51.852Z,0
2016-12-17T01:21:00.851Z,0
2016-12-17T01:22:09.840Z,0
2016-12-17T01:23:18.550Z,0
2016-12-17T01:24:27.236Z,0
2016-12-17T01:25:35.908Z,0
2016-12-17T01:26:45.311Z,0
2016-12-17T01:27:54.607Z,0
2016-12-17T01:29:03.286Z,0
2016-12-17T01:30:12.281Z,0
2016-12-17T01:31:21.882Z,0
2016-12-17T01:32:30.560Z,0
2016-12-17T01:33:39.245Z,0
2016-12-17T01:34:48.229Z,0
2016-12-17T01:35:57.512Z,0
2016-12-17T01:37:06.815Z,0
2016-12-17T01:38:16.154Z,0
2016-12-17T01:39:25.150Z,0
2016-12-17T01:40:34.131Z,0
2016-12-17T01:41:42.809Z,0
2016-12-17T01:42:51.790Z,0
2016-12-17T01:44:00.618Z,0
2016-12-17T01:45:09.304Z,0
2016-12-17T01:46:18.289Z,0
2016-12-17T01:47:27.278Z,0
2016-12-17T01:48:36.314Z,0
2016-12-17T01:49:45.292Z,0
2016-12-17T01:50:54.907Z,0
2016-12-17T01:52:03.574Z,0
2016-12-17T01:53:12.255Z,0
2016-12-17T01:54:21.271Z,0
2016-12-17T01:55:29.990Z,0
2016-12-17T01:56:38.972Z,0
2016-12-17T01:57:48.269Z,0
2016-12-17T01:58:57.247Z,0
2016-12-17T02:00:05.917Z,0
2016-12-17T02:01:15.301Z,0
2016-12-17T02:02:24.901Z,0
2016-12-17T02:03:33.888Z,0
2016-12-17T02:04:43.488Z,0
2016-12-17T02:05:52.770Z,0
2016-12-17T02:07:01.902Z,0
2016-12-17T02:08:11.201Z,0
2016-12-17T02:09:19.897Z,0
2016-12-17T02:10:29.195Z,0
2016-12-17T02:11:37.870Z,0
2016-12-17T02:12:46.860Z,0
2016-12-17T02:13:55.538Z,0
2016-12-17T02:15:04.828Z,0
2016-12-17T02:16:14.148Z,0
2016-12-17T02:17:22.832Z,0
2016-12-17T02:18:32.162Z,0
2016-12-17T02:19:41.768Z,0
2016-12-17T02:20:51.062Z,0
2016-12-17T02:22:00.354Z,0
2016-12-17T02:23:09.642Z,0
2016-12-17T02:24:18.351Z,0
2016-12-17T02:25:27.032Z,0
2016-12-17T02:26:36.364Z,0
2016-12-17T02:27:45.342Z,0
2016-12-17T02:28:54.935Z,0
2016-12-17T02:30:04.973Z,0
2016-12-17T02:31:14.304Z,0
2016-12-17T02:32:23.897Z,0
2016-12-17T02:33:33.514Z,0
2016-12-17T02:34:42.506Z,0
2016-12-17T02:35:51.605Z,0
2016-12-17T02:37:00.594Z,0
2016-12-17T02:38:09.581Z,0
2016-12-17T02:39:18.886Z,0
2016-12-17T02:40:28.178Z,0
2016-12-17T02:41:36.872Z,0
2016-12-17T02:42:46.155Z,0
2016-12-17T02:43:55.165Z,0
2016-12-17T02:45:03.853Z,0
2016-12-17T02:46:12.858Z,0
2016-12-17T02:47:22.254Z,0
2016-12-17T02:48:31.238Z,0
2016-12-17T02:49:40.538Z,0
2016-12-17T02:50:49.829Z,0
2016-12-17T02:51:58.505Z,0
2016-12-17T02:53:07.294Z,0
2016-12-17T02:54:15.967Z,0
2016-12-17T02:55:24.641Z,0
2016-12-17T02:56:33.631Z,0
2016-12-17T02:57:42.933Z,0
2016-12-17T02:58:51.613Z,0
2016-12-17T03:00:00.606Z,0
2016-12-17T03:01:09.273Z,0
2016-12-17T03:02:17.952Z,0
2016-12-17T03:03:26.639Z,0
2016-12-17T03:04:35.992Z,0
2016-12-17T03:05:45.889Z,0
2016-12-17T03:06:55.180Z,0
2016-12-17T03:08:04.798Z,0
2016-12-17T03:09:13.472Z,0
2016-12-17T03:10:22.451Z,0
2016-12-17T03:11:31.449Z,0
2016-12-17T03:12:40.747Z,0
2016-12-17T03:13:49.436Z,0
2016-12-17T03:14:59.067Z,0
2016-12-17T03:16:08.523Z,0
2016-12-17T03:17:17.520Z,0
2016-12-17T03:18:26.192Z,0
2016-12-17T03:19:34.914Z,0
2016-12-17T03:20:43.586Z,0
2016-12-17T03:21:52.901Z,0
2016-12-17T03:23:02.505Z,0
2016-12-17T03:24:12.116Z,0
2016-12-17T03:25:21.103Z,0
2016-12-17T03:26:30.092Z,0
2016-12-17T03:27:39.231Z,0
2016-12-17T03:28:48.835Z,0
2016-12-17T03:29:57.515Z,0
2016-12-17T03:31:06.807Z,0
2016-12-17T03:32:15.787Z,0
2016-12-17T03:33:24.771Z,0
2016-12-17T03:34:34.359Z,0
2016-12-17T03:35:43.341Z,0
2016-12-17T03:36:52.029Z,0
2016-12-17T03:38:00.742Z,0
2016-12-17T03:39:10.083Z,0
2016-12-17T03:40:18.762Z,0
2016-12-17T03:41:27.442Z,0
2016-12-17T03:42:36.424Z,0
2016-12-17T03:43:46.036Z,0
2016-12-17T03:44:55.325Z,0
2016-12-17T03:46:04.327Z,0
2016-12-17T03:47:13.619Z,0
2016-12-17T03:48:23.224Z,0
2016-12-17T03:49:32.210Z,0
2016-12-17T03:50:41.511Z,0
2016-12-17T03:51:51.123Z,0
2016-12-17T03:53:00.481Z,0
2016-12-17T03:54:09.463Z,0
2016-12-17T03:55:19.064Z,0
2016-12-17T03:56:28.057Z,0
2016-12-17T03:57:37.383Z,0
2016-12-17T03:58:46.072Z,0
2016-12-17T03:59:55.375Z,0
2016-12-17T04:01:04.974Z,0
2016-12-17T04:02:14.929Z,0
2016-12-17T04:03:23.907Z,0
2016-12-17T04:04:32.899Z,0
2016-12-17T04:05:41.877Z,0
2016-12-17T04:06:50.876Z,0
2016-12-17T04:07:59.904Z,0
2016-12-17T04:09:08.665Z,0
2016-12-17T04:10:17.358Z,0
2016-12-17T04:11:26.651Z,0
2016-12-17T04:12:35.953Z,0
2016-12-17T04:13:44.771Z,0
2016-12-17T04:14:53.453Z,0
2016-12-17T04:16:02.156Z,0
2016-12-17T04:17:10.830Z,0
2016-12-17T04:18:19.507Z,0
2016-12-17T04:19:28.889Z,0
2016-12-17T04:20:37.568Z,0
2016-12-17T04:21:46.240Z,0
2016-12-17T04:22:55.531Z,0
2016-12-17T04:24:05.432Z,0
2016-12-17T04:25:14.430Z,0
2016-12-17T04:26:23.415Z,0
2016-12-17T04:27:32.087Z,0
2016-12-17T04:28:41.083Z,0
2016-12-17T04:29:49.759Z,0
2016-12-17T04:30:59.449Z,0
2016-12-17T04:32:08.437Z,0
2016-12-17T04:33:17.135Z,0
2016-12-17T04:34:25.817Z,0
2016-12-17T04:35:35.112Z,0
2016-12-17T04:36:44.249Z,0
2016-12-17T04:37:52.925Z,0
2016-12-17T04:39:01.907Z,0
2016-12-17T04:40:10.660Z,0
2016-12-17T04:41:19.408Z,0
2016-12-17T04:42:28.528Z,0
2016-12-17T04:43:37.513Z,0
2016-12-17T04:44:46.504Z,0
2016-12-17T04:45:55.493Z,0
2016-12-17T04:47:04.480Z,0
2016-12-17T04:48:13.311Z,0
2016-12-17T04:49:22.611Z,0
2016-12-17T04:50:31.287Z,0
2016-12-17T04:51:39.957Z,0
2016-12-17T04:52:48.939Z,0
2016-12-17T04:53:57.726Z,0
2016-12-17T04:55:06.403Z,0
2016-12-17T04:56:15.689Z,0
2016-12-17T04:57:24.680Z,0
2016-12-17T04:58:33.357Z,0
2016-12-17T04:59:42.181Z,0
2016-12-17T05:00:50.860Z,0
2016-12-17T05:02:00.162Z,0
2016-12-17T05:03:08.857Z,0
2016-12-17T05:04:17.546Z,0
2016-12-17T05:05:27.497Z,0
2016-12-17T05:06:36.791Z,0
2016-12-17T05:07:46.090Z,0
2016-12-17T05:08:55.398Z,0
2016-12-17T05:10:04.082Z,0
2016-12-17T05:11:13.082Z,0
2016-12-17T05:12:22.083Z,0
2016-12-17T05:13:31.371Z,0
2016-12-17T05:14:40.374Z,0
2016-12-17T05:15:49.361Z,0
2016-12-17T05:16:58.350Z,0
2016-12-17T05:18:07.027Z,0
2016-12-17T05:19:16.010Z,0
2016-12-17T05:20:25.304Z,0
2016-12-17T05:21:34.603Z,0
2016-12-17T05:22:43.424Z,0
2016-12-17T05:23:52.116Z,0
2016-12-17T05:25:01.111Z,0
2016-12-17T05:26:10.726Z,0
2016-12-17T05:27:19.708Z,0
2016-12-17T05:28:28.481Z,0
2016-12-17T05:29:37.151Z,0
2016-12-17T05:30:45.831Z,0
2016-12-17T05:31:54.826Z,0
2016-12-17T05:33:03.810Z,0
2016-12-17T05:34:13.149Z,0
2016-12-17T05:35:22.130Z,0
2016-12-17T05:36:30.825Z,0
2016-12-17T05:37:39.822Z,0
2016-12-17T05:38:48.817Z,0
2016-12-17T05:39:58.528Z,0
2016-12-17T05:41:07.520Z,0
2016-12-17T05:42:16.524Z,0
2016-12-17T05:43:25.210Z,0
2016-12-17T05:44:34.496Z,0
2016-12-17T05:45:43.608Z,0
2016-12-17T05:46:52.293Z,0
2016-12-17T05:48:00.981Z,0
2016-12-17T05:49:09.672Z,0
2016-12-17T05:50:18.678Z,0
2016-12-17T05:51:28.585Z,0
2016-12-17T05:52:37.264Z,0
2016-12-17T05:53:46.558Z,0
2016-12-17T05:54:55.234Z,0
2016-12-17T05:56:04.514Z,0
2016-12-17T05:57:13.955Z,0
2016-12-17T05:58:22.958Z,0
2016-12-17T05:59:31.943Z,0
2016-12-17T06:00:41.237Z,0
2016-12-17T06:01:49.915Z,0
2016-12-17T06:02:59.212Z,0
2016-12-17T06:04:07.912Z,0
2016-12-17T06:05:16.598Z,0
2016-12-17T06:06:25.886Z,0
2016-12-17T06:07:34.875Z,0
2016-12-17T06:08:43.970Z,0
2016-12-17T06:09:52.661Z,0
2016-12-17T06:11:01.352Z,0
2016-12-17T06:12:10.334Z,0
2016-12-17T06:13:19.325Z,0
2016-12-17T06:14:28.619Z,0
2016-12-17T06:15:37.312Z,0
2016-12-17T06:16:45.988Z,0
2016-12-17T06:17:55.577Z,0
2016-12-17T06:19:04.568Z,0
2016-12-17T06:20:13.253Z,0
2016-12-17T06:21:22.244Z,0
2016-12-17T06:22:30.930Z,0
2016-12-17T06:23:39.617Z,0
2016-12-17T06:24:48.614Z,0
2016-12-17T06:25:57.436Z,0
2016-12-17T06:27:06.116Z,0
2016-12-17T06:28:14.820Z,0
2016-12-17T06:29:24.202Z,0
2016-12-17T06:30:33.497Z,0
2016-12-17T06:31:42.321Z,0
2016-12-17T06:32:50.996Z,0
2016-12-17T06:34:00.303Z,0
2016-12-17T06:35:09.308Z,0
2016-12-17T06:36:18.340Z,0
2016-12-17T06:37:27.320Z,0
2016-12-17T06:38:36.625Z,0
2016-12-17T06:39:45.294Z,0
2016-12-17T06:40:53.964Z,0
2016-12-17T06:42:02.651Z,0
2016-12-17T06:43:11.939Z,0
2016-12-17T06:44:20.629Z,0
2016-12-17T06:45:29.934Z,0
2016-12-17T06:46:38.620Z,0
2016-12-17T06:47:47.295Z,0
2016-12-17T06:48:56.750Z,0
2016-12-17T06:50:05.428Z,0
2016-12-17T06:51:14.746Z,0
2016-12-17T06:52:24.041Z,0
2016-12-17T06:53:32.735Z,0
2016-12-17T06:54:41.516Z,0
2016-12-17T06:55:50.502Z,0
2016-12-17T06:56:59.793Z,0
2016-12-17T06:58:08.776Z,0
2016-12-17T06:59:17.769Z,0
2016-12-17T07:00:26.860Z,0
2016-12-17T07:01:36.166Z,0
2016-12-17T07:02:45.156Z,0
2016-12-17T07:03:54.160Z,0
2016-12-17T07:05:03.449Z,4
2016-12-17T07:06:12.738Z,4
2016-12-17T07:07:21.731Z,4
2016-12-17T07:08:30.420Z,0
2016-12-17T07:09:39.105Z,4
2016-12-17T07:10:48.101Z,4
2016-12-17T07:11:57.395Z,4
2016-12-17T07:13:06.096Z,8
2016-12-17T07:14:15.088Z,8
2016-12-17T07:15:24.420Z,8
2016-12-17T07:16:33.396Z,8
2016-12-17T07:17:42.793Z,12
2016-12-17T07:18:51.767Z,12
2016-12-17T07:20:00.750Z,16
2016-12-17T07:21:09.428Z,16
2016-12-17T07:22:18.407Z,16
2016-12-17T07:23:28.159Z,16
2016-12-17T07:24:36.852Z,20
2016-12-17T07:25:45.845Z,24
2016-12-17T07:26:54.520Z,24
2016-12-17T07:28:03.503Z,32
2016-12-17T07:29:12.634Z,32
2016-12-17T07:30:21.618Z,36
2016-12-17T07:31:30.911Z,40
2016-12-17T07:32:39.893Z,44
2016-12-17T07:33:48.872Z,44
2016-12-17T07:34:57.915Z,52
2016-12-17T07:36:07.511Z,52
2016-12-17T07:37:16.496Z,56
2016-12-17T07:40:57.877Z,68
2016-12-17T07:42:07.175Z,68
2016-12-17T07:43:16.497Z,64
2016-12-17T07:49:30.680Z,48
2016-12-17T07:50:39.355Z,44
2016-12-17T07:54:20.704Z,56
2016-12-17T07:55:29.378Z,60
2016-12-17T07:56:38.422Z,64
2016-12-17T07:57:48.336Z,68
2016-12-17T07:58:57.021Z,72
2016-12-17T08:00:06.011Z,72
2016-12-17T08:01:15.343Z,80
2016-12-17T08:02:24.714Z,88
2016-12-17T08:03:33.402Z,96
2016-12-17T08:04:42.704Z,100
2016-12-17T08:08:23.735Z,116
2016-12-17T08:09:32.409Z,124
2016-12-17T08:10:41.695Z,124
2016-12-17T08:11:50.379Z,124
2016-12-17T08:12:59.057Z,120
2016-12-17T08:14:07.920Z,112
2016-12-17T08:15:17.224Z,116
2016-12-17T08:16:26.017Z,132
2016-12-17T08:17:35.502Z,140
2016-12-17T08:18:44.181Z,144
2016-12-17T08:19:53.478Z,152
2016-12-17T08:21:02.330Z,156
2016-12-17T08:22:11.681Z,160
2016-12-17T08:23:20.442Z,164
2016-12-17T08:24:29.265Z,172
2016-12-17T08:25:38.734Z,172
2016-12-17T08:26:47.729Z,164
2016-12-17T08:27:56.797Z,160
2016-12-17T08:29:05.647Z,156
2016-12-17T08:30:15.129Z,152
2016-12-17T08:31:23.820Z,144
2016-12-17T08:32:32.869Z,132
2016-12-17T08:33:41.862Z,120
2016-12-17T08:34:50.857Z,112
2016-12-17T08:35:59.535Z,104
2016-12-17T08:37:09.235Z,100
2016-12-17T08:38:18.223Z,96
2016-12-17T08:39:27.227Z,100
2016-12-17T08:40:36.233Z,104
2016-12-17T08:41:44.924Z,108
2016-12-17T08:42:54.374Z,112
2016-12-17T08:44:03.125Z,128
2016-12-17T08:45:12.141Z,148
2016-12-17T08:46:21.166Z,164
2016-12-17T08:47:30.466Z,172
2016-12-17T08:48:39.490Z,176
2016-12-17T08:49:48.516Z,180
2016-12-17T08:50:57.503Z,188
2016-12-17T08:52:06.800Z,196
2016-12-17T08:53:15.786Z,208
2016-12-17T08:54:24.766Z,216
2016-12-17T08:55:34.066Z,228
2016-12-17T08:56:43.046Z,240
2016-12-17T08:57:51.743Z,248
2016-12-17T08:59:01.031Z,252
2016-12-17T09:00:09.735Z,248
2016-12-17T09:01:19.035Z,252
2016-12-17T09:02:28.019Z,268
2016-12-17T09:03:36.997Z,276
2016-12-17T09:04:45.685Z,284
2016-12-17T09:05:54.671Z,292
2016-12-17T09:07:03.666Z,296
2016-12-17T09:08:12.965Z,300
2016-12-17T09:09:22.277Z,316
2016-12-17T09:10:31.283Z,324
2016-12-17T09:11:40.269Z,316
2016-12-17T09:12:49.280Z,312
2016-12-17T09:13:58.572Z,324
2016-12-17T09:15:07.880Z,340
2016-12-17T09:16:17.787Z,356
2016-12-17T09:17:27.548Z,364
2016-12-17T09:18:36.847Z,364
2016-12-17T09:19:45.529Z,360
2016-12-17T09:20:54.513Z,356
2016-12-17T09:22:03.492Z,344
2016-12-17T09:23:12.892Z,328
2016-12-17T09:24:21.582Z,332
2016-12-17T09:25:30.577Z,340
2016-12-17T09:26:39.881Z,340
2016-12-17T09:27:48.888Z,332
2016-12-17T09:28:58.627Z,340
2016-12-17T09:30:07.620Z,372
2016-12-17T09:31:16.610Z,404
2016-12-17T09:32:25.600Z,432
2016-12-17T09:33:34.597Z,448
2016-12-17T09:34:43.695Z,464
2016-12-17T09:35:52.700Z,476
2016-12-17T09:37:02.628Z,480
2016-12-17T09:38:11.312Z,488
2016-12-17T09:39:20.002Z,492
2016-12-17T09:40:29.180Z,512
2016-12-17T09:41:38.800Z,520
2016-12-17T09:42:48.102Z,508
2016-12-17T09:43:57.098Z,496
2016-12-17T09:45:06.094Z,496
2016-12-17T09:46:15.387Z,504
2016-12-17T09:47:24.067Z,516
2016-12-17T09:48:32.747Z,532
2016-12-17T09:49:41.744Z,548
2016-12-17T09:50:51.367Z,560
2016-12-17T09:52:00.368Z,568
2016-12-17T09:53:09.062Z,568
2016-12-17T09:54:17.758Z,568
2016-12-17T09:55:27.376Z,560
2016-12-17T09:56:36.679Z,556
2016-12-17T09:57:45.815Z,584
2016-12-17T09:58:54.815Z,612
2016-12-17T10:00:03.826Z,608
2016-12-17T10:01:13.133Z,600
2016-12-17T10:02:22.114Z,588
2016-12-17T10:03:31.885Z,580
2016-12-17T10:04:40.869Z,568
2016-12-17T10:05:50.169Z,564
2016-12-17T10:06:58.854Z,568
2016-12-17T10:08:08.139Z,584
2016-12-17T10:09:17.127Z,584
2016-12-17T10:10:26.124Z,576
2016-12-17T10:11:35.123Z,568
2016-12-17T10:12:44.128Z,576
2016-12-17T10:13:52.810Z,588
2016-12-17T10:15:01.974Z,624
2016-12-17T10:16:10.664Z,672
2016-12-17T10:17:19.659Z,708
2016-12-17T10:18:28.374Z,724
2016-12-17T10:19:37.058Z,740
2016-12-17T10:20:46.110Z,764
2016-12-17T10:21:54.817Z,780
2016-12-17T10:23:03.501Z,780
2016-12-17T10:24:13.327Z,792
2016-12-17T10:25:22.126Z,792
2016-12-17T10:26:32.268Z,800
2016-12-17T10:27:41.025Z,816
2016-12-17T10:28:50.100Z,828
2016-12-17T10:29:59.399Z,816
2016-12-17T10:31:08.203Z,784
2016-12-17T10:32:17.301Z,776
2016-12-17T10:33:26.588Z,756
2016-12-17T10:34:35.581Z,736
2016-12-17T10:35:44.264Z,720
2016-12-17T10:36:53.253Z,696
2016-12-17T10:38:02.858Z,664
2016-12-17T10:39:11.845Z,656
2016-12-17T10:40:20.825Z,660
2016-12-17T10:41:30.121Z,652
2016-12-17T10:42:39.735Z,648
2016-12-17T10:43:48.880Z,636
2016-12-17T10:44:57.880Z,628
2016-12-17T10:46:06.566Z,624
2016-12-17T10:47:15.599Z,612
2016-12-17T10:48:24.277Z,600
2016-12-17T10:49:33.064Z,592
2016-12-17T10:50:42.369Z,584
2016-12-17T10:51:51.364Z,572
2016-12-17T10:53:00.990Z,568
2016-12-17T10:54:09.686Z,568
2016-12-17T10:55:18.828Z,568
2016-12-17T10:56:27.821Z,568
2016-12-17T10:57:37.127Z,568
2016-12-17T10:58:45.814Z,564
2016-12-17T10:59:54.809Z,564
2016-12-17T11:01:04.253Z,560
2016-12-17T11:02:12.935Z,560
2016-12-17T11:03:21.925Z,556
2016-12-17T11:04:30.943Z,552
2016-12-17T11:05:39.621Z,552
2016-12-17T11:06:48.616Z,556
2016-12-17T11:07:57.326Z,556
2016-12-17T11:09:06.939Z,560
2016-12-17T11:10:16.557Z,548
2016-12-17T11:11:25.577Z,540
2016-12-17T11:12:35.104Z,532
2016-12-17T11:13:44.095Z,536
2016-12-17T11:14:52.778Z,540
2016-12-17T11:16:01.778Z,552
2016-12-17T11:17:11.415Z,556
2016-12-17T11:18:20.712Z,548
2016-12-17T11:19:29.703Z,536
2016-12-17T11:20:39.036Z,520
2016-12-17T11:21:48.042Z,504
2016-12-17T11:22:57.364Z,496
2016-12-17T11:24:06.054Z,500
2016-12-17T11:25:15.054Z,508
2016-12-17T11:26:23.725Z,508
2016-12-17T11:27:32.444Z,504
2016-12-17T11:28:41.123Z,496
2016-12-17T11:29:50.649Z,492
2016-12-17T11:30:59.663Z,484
2016-12-17T11:32:09.256Z,472
2016-12-17T11:33:18.261Z,460
2016-12-17T11:34:27.261Z,448
2016-12-17T11:35:36.412Z,448
2016-12-17T11:36:45.400Z,448
2016-12-17T11:37:54.397Z,456
2016-12-17T11:39:03.076Z,452
2016-12-17T11:40:12.065Z,452
2016-12-17T11:41:20.736Z,452
2016-12-17T11:42:29.727Z,460
2016-12-17T11:43:39.021Z,460
2016-12-17T11:44:47.724Z,460
2016-12-17T11:45:56.405Z,464
2016-12-17T11:47:05.397Z,472
2016-12-17T11:48:14.379Z,472
2016-12-17T11:49:23.983Z,480
2016-12-17T11:50:32.670Z,480
2016-12-17T11:51:41.353Z,492
2016-12-17T11:52:50.683Z,516
2016-12-17T11:53:59.987Z,536
2016-12-17T11:55:09.296Z,544
2016-12-17T11:56:18.594Z,552
2016-12-17T11:57:27.896Z,560
2016-12-17T11:58:37.339Z,544
2016-12-17T11:59:46.331Z,528
2016-12-17T12:00:55.326Z,520
2016-12-17T12:02:04.941Z,492
2016-12-17T12:03:13.938Z,488
2016-12-17T12:04:23.282Z,488
2016-12-17T12:05:32.264Z,476
2016-12-17T12:06:41.557Z,460
2016-12-17T12:07:50.556Z,444
2016-12-17T12:08:59.850Z,428
2016-12-17T12:10:09.923Z,412
2016-12-17T12:11:19.215Z,404
2016-12-17T12:12:28.215Z,412
2016-12-17T12:13:37.508Z,432
2016-12-17T12:14:47.179Z,432
2016-12-17T12:15:56.167Z,436
2016-12-17T12:17:05.789Z,440
2016-12-17T12:18:14.773Z,448
2016-12-17T12:19:23.755Z,444
2016-12-17T12:20:33.072Z,436
2016-12-17T12:21:42.095Z,428
2016-12-17T12:22:50.795Z,420
2016-12-17T12:23:59.777Z,400
2016-12-17T12:25:09.076Z,380
2016-12-17T12:26:18.064Z,372
2016-12-17T12:27:26.912Z,348
2016-12-17T12:28:36.208Z,356
2016-12-17T12:29:45.216Z,368
2016-12-17T12:30:53.897Z,376
2016-12-17T12:32:03.196Z,384
2016-12-17T12:33:11.894Z,392
2016-12-17T12:34:20.902Z,380
2016-12-17T12:35:29.574Z,372
2016-12-17T12:36:38.589Z,352
2016-12-17T12:37:47.885Z,340
2016-12-17T12:38:57.184Z,332
2016-12-17T12:40:06.493Z,332
2016-12-17T12:41:15.485Z,328
2016-12-17T12:42:24.783Z,316
2016-12-17T12:43:33.765Z,308
2016-12-17T12:44:43.135Z,312
2016-12-17T12:45:51.827Z,328
2016-12-17T12:47:00.824Z,340
2016-12-17T12:48:09.803Z,372
2016-12-17T12:49:18.808Z,384
2016-12-17T12:50:27.612Z,384
2016-12-17T12:51:36.299Z,380
2016-12-17T12:52:44.998Z,384
2016-12-17T12:53:53.687Z,396
2016-12-17T12:55:02.687Z,412
2016-12-17T12:56:12.139Z,416
2016-12-17T12:57:21.445Z,420
2016-12-17T12:58:30.123Z,412
2016-12-17T12:59:39.103Z,412
2016-12-17T13:00:47.787Z,428
2016-12-17T13:01:56.477Z,448
2016-12-17T13:03:05.774Z,460
2016-12-17T13:04:14.760Z,472
2016-12-17T13:05:24.059Z,476
2016-12-17T13:06:32.743Z,480
2016-12-17T13:07:42.144Z,480
2016-12-17T13:08:50.825Z,464
2016-12-17T13:10:00.138Z,460
2016-12-17T13:11:09.120Z,448
2016-12-17T13:12:17.808Z,416
2016-12-17T13:13:26.794Z,380
2016-12-17T13:14:35.789Z,368
2016-12-17T13:15:44.781Z,348
2016-12-17T13:16:53.766Z,340
2016-12-17T13:18:02.769Z,324
2016-12-17T13:19:12.533Z,316
2016-12-17T13:20:22.182Z,308
2016-12-17T13:21:30.905Z,284
2016-12-17T13:22:39.595Z,256
2016-12-17T13:23:48.912Z,248
2016-12-17T13:24:57.945Z,240
2016-12-17T13:26:06.629Z,240
2016-12-17T13:27:15.686Z,244
2016-12-17T13:28:24.379Z,252
2016-12-17T13:29:33.436Z,268
2016-12-17T13:30:42.423Z,272
2016-12-17T13:31:51.408Z,268
2016-12-17T13:33:00.419Z,268
2016-12-17T13:34:09.402Z,260
2016-12-17T13:35:18.710Z,252
2016-12-17T13:36:28.412Z,252
2016-12-17T13:37:37.707Z,264
2016-12-17T13:38:47.925Z,272
2016-12-17T13:39:56.909Z,268
2016-12-17T13:41:05.610Z,256
2016-12-17T13:42:14.638Z,252
2016-12-17T13:43:23.947Z,252
2016-12-17T13:44:32.663Z,240
2016-12-17T13:45:41.336Z,240
2016-12-17T13:46:50.036Z,248
2016-12-17T13:47:58.870Z,244
2016-12-17T13:49:07.864Z,240
2016-12-17T13:50:17.188Z,220
2016-12-17T13:51:26.486Z,212
2016-12-17T13:52:35.159Z,212
2016-12-17T13:53:43.856Z,208
2016-12-17T13:54:52.552Z,192
2016-12-17T13:56:01.583Z,172
2016-12-17T13:57:10.271Z,160
2016-12-17T13:58:18.965Z,164
2016-12-17T13:59:28.416Z,164
2016-12-17T14:00:37.713Z,160
2016-12-17T14:01:46.703Z,156
2016-12-17T14:02:55.694Z,148
2016-12-17T14:04:04.989Z,140
2016-12-17T14:05:13.979Z,136
2016-12-17T14:06:23.297Z,128
2016-12-17T14:07:31.997Z,124
2016-12-17T14:08:41.622Z,120
2016-12-17T14:09:50.620Z,128
2016-12-17T14:11:00.280Z,144
2016-12-17T14:12:09.293Z,168
2016-12-17T14:13:18.615Z,172
2016-12-17T14:14:27.963Z,164
2016-12-17T14:15:36.679Z,152
2016-12-17T14:16:46.009Z,144
2016-12-17T14:17:55.043Z,140
2016-12-17T14:19:04.078Z,136
2016-12-17T14:20:13.092Z,128
2016-12-17T14:21:22.093Z,120
2016-12-17T14:22:31.114Z,112
2016-12-17T14:23:39.818Z,116
2016-12-17T14:24:49.138Z,132
2016-12-17T14:25:58.505Z,136
2016-12-17T14:27:08.131Z,128
2016-12-17T14:28:17.796Z,128
2016-12-17T14:29:26.485Z,128
2016-12-17T14:30:35.489Z,120
2016-12-17T14:31:44.196Z,112
2016-12-17T14:32:53.232Z,104
2016-12-17T14:34:02.283Z,88
2016-12-17T14:35:11.313Z,76
2016-12-17T14:36:20.642Z,72
2016-12-17T14:37:29.940Z,76
2016-12-17T14:38:38.632Z,80
2016-12-17T14:39:48.163Z,80
2016-12-17T14:40:57.173Z,76
2016-12-17T14:42:05.867Z,76
2016-12-17T14:43:15.501Z,80
2016-12-17T14:44:24.207Z,80
2016-12-17T14:45:33.208Z,76
2016-12-17T14:46:42.254Z,80
2016-12-17T14:47:51.293Z,76
2016-12-17T14:49:00.288Z,72
2016-12-17T14:50:09.625Z,76
2016-12-17T14:51:18.478Z,76
2016-12-17T14:52:27.193Z,76
2016-12-17T14:53:35.894Z,72
2016-12-17T14:54:44.901Z,68
2016-12-17T14:55:54.223Z,60
2016-12-17T14:57:03.234Z,56
2016-12-17T14:58:12.569Z,52
2016-12-17T14:59:21.889Z,52
2016-12-17T15:00:30.564Z,44
2016-12-17T15:01:39.561Z,44
2016-12-17T15:02:48.240Z,44
2016-12-17T15:03:56.925Z,44
2016-12-17T15:05:05.615Z,44
2016-12-17T15:06:14.621Z,40
2016-12-17T15:07:23.624Z,40
2016-12-17T15:08:32.489Z,36
2016-12-17T15:09:41.786Z,32
2016-12-17T15:10:50.784Z,32
2016-12-17T15:12:00.080Z,32
2016-12-17T15:13:09.077Z,32
2016-12-17T15:14:18.524Z,32
2016-12-17T15:15:27.216Z,28
2016-12-17T15:16:35.907Z,28
2016-12-17T15:17:44.894Z,28
2016-12-17T15:18:54.514Z,28
2016-12-17T15:20:04.280Z,24
2016-12-17T15:21:13.267Z,24
2016-12-17T15:22:22.264Z,20
2016-12-17T15:23:30.957Z,16
2016-12-17T15:24:39.955Z,16
2016-12-17T15:25:49.623Z,16
2016-12-17T15:26:58.645Z,12
2016-12-17T15:28:07.343Z,12
2016-12-17T15:29:16.344Z,8
2016-12-17T15:30:26.252Z,8
2016-12-17T15:31:35.270Z,8
2016-12-17T15:32:44.594Z,8
2016-12-17T15:33:53.581Z,8
2016-12-17T15:35:02.264Z,4
2016-12-17T15:36:10.953Z,8
2016-12-17T15:37:20.382Z,4
2016-12-17T15:38:29.373Z,4
2016-12-17T15:39:39.009Z,4
2016-12-17T15:40:48.018Z,4
2016-12-17T15:41:57.328Z,4
2016-12-17T15:43:06.317Z,4
2016-12-17T15:44:15.316Z,4
2016-12-17T15:45:24.003Z,4
2016-12-17T15:46:33.290Z,4
2016-12-17T15:47:42.287Z,4
2016-12-17T15:48:51.278Z,0
2016-12-17T15:49:59.959Z,0
2016-12-17T15:51:08.662Z,0
2016-12-17T15:52:17.644Z,4
2016-12-17T15:53:26.641Z,4
2016-12-17T15:54:35.986Z,4
2016-12-17T15:55:44.986Z,4
2016-12-17T15:56:53.979Z,4
2016-12-17T15:58:02.669Z,4
2016-12-17T15:59:11.670Z,4
2016-12-17T16:00:20.674Z,4
2016-12-17T16:01:29.398Z,4
2016-12-17T16:02:38.093Z,4
2016-12-17T16:03:46.792Z,4
2016-12-17T16:04:55.796Z,4
2016-12-17T16:06:05.095Z,4
2016-12-17T16:07:14.095Z,4
2016-12-17T16:08:23.090Z,4
2016-12-17T16:09:32.750Z,4
2016-12-17T16:10:41.775Z,4
2016-12-17T16:11:50.898Z,4
2016-12-17T16:13:00.504Z,4
2016-12-17T16:14:09.806Z,4
2016-12-17T16:15:18.519Z,4
2016-12-17T16:16:27.213Z,4
2016-12-17T16:17:36.917Z,4
2016-12-17T16:18:45.941Z,4
2016-12-17T16:19:54.976Z,4
2016-12-17T16:21:03.663Z,4
2016-12-17T16:22:12.381Z,4
2016-12-17T16:23:21.082Z,4
2016-12-17T16:24:30.390Z,4
2016-12-17T16:25:39.696Z,4
2016-12-17T16:26:48.999Z,4
2016-12-17T16:27:57.696Z,4
2016-12-17T16:29:07.402Z,4
2016-12-17T16:30:17.028Z,4
2016-12-17T16:31:25.710Z,0
2016-12-17T16:32:35.011Z,4
2016-12-17T16:33:43.702Z,4
2016-12-17T16:34:53.312Z,4
2016-12-17T16:36:02.618Z,4
2016-12-17T16:37:11.640Z,4
2016-12-17T16:38:21.038Z,4
2016-12-17T16:39:30.328Z,4
2016-12-17T16:40:39.781Z,4
2016-12-17T16:41:48.466Z,4